Time;durP1;ratioP1;P1;durP2;ratioP2;P2;SDS_P1;SDS_P2;PMS_P1;PMS_P2;Temp;Humidity;BMP_temperature;BMP_pressure;BME280_temperature;BME280_humidity;BME280_pressure;Samples;Min_cycle;Max_cycle;Signal;HPM_P1;HPM_P2
2021/12/22 00:02:17;;;;;;;;;;;;;;;6.83;49.49;102713.75;5030239;28;20375;-82
2021/12/22 00:04:45;;;;;;;;;;;;;;;7.14;48.40;102708.28;5028894;28;20012;-83
2021/12/22 00:07:11;;;;;;;;;;;;;;;6.37;50.22;102715.59;5025262;28;19917;-89
2021/12/22 00:09:36;;;;;;;;;;;;;;;5.98;51.57;102711.97;5024199;28;19924;-85
2021/12/22 00:12:02;;;;;;;;;;;;;;;5.32;53.79;102718.00;5041037;28;19963;-85
2021/12/22 00:14:27;;;;;;;;;;;;;;;5.77;53.30;102710.09;5023550;28;19921;-85
2021/12/22 00:16:52;;;;;;;;;;;;;;;6.13;51.74;102705.72;5023225;28;19917;-85
2021/12/22 00:19:18;;;;;;;;;;;;;;;6.00;52.01;102695.84;5022463;28;19921;-86
2021/12/22 00:21:43;;;;;;;;;;;;;;;6.28;51.41;102691.41;5013891;28;19971;-84
2021/12/22 00:24:08;;;;;;;;;;;;;;;5.85;52.83;102697.56;5011840;28;20298;-84
2021/12/22 00:26:34;;;;;;;;;;;;;;;6.41;51.34;102689.59;5012137;28;19928;-86
2021/12/22 00:28:59;;;;;;;;;;;;;;;5.88;52.68;102682.38;5041818;28;19917;-87
2021/12/22 00:31:24;;;;;;;;;;;;;;;5.93;52.64;102683.28;5016244;28;19937;-87
2021/12/22 00:33:51;;;;;;;;;;;;;;;6.30;51.23;102691.41;5026899;28;19952;-82
2021/12/22 00:36:18;;;;;;;;;;;;;;;4.99;54.81;102688.34;5004272;28;20362;-81
2021/12/22 00:38:44;;;;;;;;;;;;;;;5.36;54.32;102685.81;5025159;28;19939;-85
2021/12/22 00:41:09;;;;;;;;;;;;;;;5.22;55.26;102697.38;5011101;28;19956;-87
2021/12/22 00:43:35;;;;;;;;;;;;;;;6.17;52.51;102682.44;5013279;28;19917;-86
2021/12/22 00:46:00;;;;;;;;;;;;;;;6.48;50.96;102683.31;5041159;28;20423;-83
2021/12/22 00:48:25;;;;;;;;;;;;;;;7.15;49.10;102680.47;5014011;28;19923;-86
2021/12/22 00:50:51;;;;;;;;;;;;;;;7.27;47.91;102678.63;5041118;28;20497;-86
2021/12/22 00:53:17;;;;;;;;;;;;;;;6.93;49.51;102675.19;5041897;28;20010;-86
2021/12/22 00:55:42;;;;;;;;;;;;;;;6.67;50.13;102686.91;5015302;28;19924;-83
2021/12/22 00:58:07;;;;;;;;;;;;;;;7.23;48.27;102684.03;5017519;28;19918;-84
2021/12/22 01:00:33;;;;;;;;;;;;;;;6.87;48.80;102684.16;5018747;28;19996;-85
2021/12/22 01:02:58;;;;;;;;;;;;;;;6.59;50.26;102694.06;5040828;28;19925;-86
2021/12/22 01:05:24;;;;;;;;;;;;;;;6.90;48.92;102685.94;5018017;28;19939;-85
2021/12/22 01:07:49;;;;;;;;;;;;;;;7.10;48.17;102684.06;5021514;28;20426;-85
2021/12/22 01:10:15;;;;;;;;;;;;;;;7.18;47.71;102691.22;5018507;28;19918;-86
2021/12/22 01:12:40;;;;;;;;;;;;;;;7.20;47.45;102701.09;5044947;28;20398;-84
2021/12/22 01:15:07;;;;;;;;;;;;;;;7.23;47.19;102697.47;5021378;28;19925;-81
2021/12/22 01:17:38;;;;;;;;;;;;;;;7.14;46.82;102701.13;5021816;28;19921;-85
2021/12/22 01:20:10;;;;;;;;;;;;;;;7.06;47.17;102701.13;5027005;28;19925;-87
2021/12/22 01:25:04;;;;;;;;;;;;;;;6.96;46.83;102702.06;5045258;28;19984;-86
2021/12/22 01:27:36;;;;;;;;;;;;;;;7.07;47.36;102692.16;5027534;28;19964;-83
2021/12/22 01:30:03;;;;;;;;;;;;;;;6.92;46.59;102700.28;5026955;28;19913;-87
2021/12/22 01:32:29;;;;;;;;;;;;;;;6.86;46.87;102697.63;5026731;28;19917;-87
2021/12/22 01:34:55;;;;;;;;;;;;;;;6.67;47.35;102704.81;5027248;28;19917;-81
2021/12/22 01:37:20;;;;;;;;;;;;;;;6.85;47.61;102693.13;5050562;28;19918;-82
2021/12/22 01:39:46;;;;;;;;;;;;;;;6.74;47.93;102702.09;5010619;28;19972;-86
2021/12/22 01:42:11;;;;;;;;;;;;;;;6.87;47.44;102699.38;5024889;28;19917;-82
2021/12/22 01:45:01;;;;;;;;;;;;;;;6.90;47.30;102694.03;5044135;28;20371;-85
2021/12/22 01:50:13;;;;;;;;;;;;;;;6.91;46.80;102680.56;5044143;28;19998;-87
2021/12/22 01:52:38;;;;;;;;;;;;;;;6.83;47.23;102686.84;5026442;28;19917;-85
2021/12/22 01:55:13;;;;;;;;;;;;;;;6.61;48.21;102681.50;5027529;28;19917;-88
2021/12/22 01:57:46;;;;;;;;;;;;;;;6.96;47.46;102674.25;5027096;28;19923;-86
2021/12/22 02:00:12;;;;;;;;;;;;;;;6.88;47.13;102667.13;5011475;28;19988;-87
2021/12/22 02:02:37;;;;;;;;;;;;;;;6.74;47.16;102675.19;5026956;28;19960;-86
2021/12/22 02:05:03;;;;;;;;;;;;;;;5.50;51.38;102678.72;5044714;28;20011;-85
2021/12/22 02:07:28;;;;;;;;;;;;;;;5.64;52.90;102676.06;5043656;28;19988;-87
2021/12/22 02:10:32;;;;;;;;;;;;;;;5.27;53.45;102686.69;5025688;28;20601;-85
2021/12/22 02:12:58;;;;;;;;;;;;;;;6.13;51.51;102683.31;5043909;28;19964;-86
2021/12/22 02:15:24;;;;;;;;;;;;;;;6.69;48.77;102677.03;5026090;28;19944;-84
2021/12/22 02:17:49;;;;;;;;;;;;;;;6.89;48.15;102673.38;5026427;28;19995;-85
2021/12/22 02:20:15;;;;;;;;;;;;;;;6.89;48.10;102676.97;5024945;28;19926;-85
2021/12/22 02:22:42;;;;;;;;;;;;;;;6.71;48.48;102680.59;5025719;28;19921;-86
2021/12/22 02:25:15;;;;;;;;;;;;;;;6.73;47.98;102686.88;5025981;28;20268;-85
2021/12/22 02:27:54;;;;;;;;;;;;;;;6.67;47.96;102688.66;5025845;28;19924;-88
2021/12/22 02:30:26;;;;;;;;;;;;;;;6.81;47.54;102685.94;5025822;28;19986;-86
2021/12/22 02:35:39;;;;;;;;;;;;;;;6.79;47.59;102687.75;5044558;28;19924;-88
2021/12/22 02:38:12;;;;;;;;;;;;;;;6.67;47.47;102703.03;5026348;28;19940;-87
2021/12/22 02:40:37;;;;;;;;;;;;;;;6.46;48.31;102700.34;5044046;28;20311;-86
2021/12/22 02:43:05;;;;;;;;;;;;;;;6.48;48.01;102696.75;5026816;28;19921;-86
2021/12/22 02:45:31;;;;;;;;;;;;;;;6.54;47.90;102699.44;5026801;28;19941;-88
2021/12/22 02:47:57;;;;;;;;;;;;;;;6.34;48.11;102703.94;5026628;28;19924;-85
2021/12/22 02:50:22;;;;;;;;;;;;;;;6.50;47.12;102704.84;5027004;28;19929;-86
2021/12/22 02:53:00;;;;;;;;;;;;;;;6.26;47.90;102708.41;5026610;28;20012;-85
2021/12/22 02:55:31;;;;;;;;;;;;;;;6.24;47.79;102702.16;5027042;28;20019;-83
2021/12/22 02:58:00;;;;;;;;;;;;;;;6.06;47.94;102694.97;5028306;28;19917;-82
2021/12/22 03:05:22;;;;;;;;;;;;;;;6.30;47.60;102694.97;5051385;28;20382;-82
2021/12/22 03:07:53;;;;;;;;;;;;;;;6.38;47.67;102698.53;5051212;28;19917;-80
2021/12/22 03:10:18;;;;;;;;;;;;;;;6.47;46.96;102702.16;5031439;28;19980;-82
2021/12/22 03:12:44;;;;;;;;;;;;;;;6.21;47.82;102700.34;5030983;28;19921;-85
2021/12/22 03:15:09;;;;;;;;;;;;;;;6.14;48.23;102698.56;5029912;28;19946;-85
2021/12/22 03:17:36;;;;;;;;;;;;;;;6.30;47.90;102692.28;5010544;28;19917;-83
2021/12/22 03:20:03;;;;;;;;;;;;;;;6.43;46.89;102695.88;5044762;28;19932;-84
2021/12/22 03:22:28;;;;;;;;;;;;;;;6.14;47.31;102680.63;5026865;28;19923;-85
2021/12/22 03:24:53;;;;;;;;;;;;;;;6.27;47.36;102689.59;5010112;28;20371;-85
2021/12/22 03:27:20;;;;;;;;;;;;;;;6.35;46.85;102682.41;5044095;28;19917;-86
2021/12/22 03:29:46;;;;;;;;;;;;;;;6.30;47.10;102686.03;5026742;28;19957;-85
2021/12/22 03:32:13;;;;;;;;;;;;;;;6.08;47.88;102679.75;5025013;28;22894;-88
2021/12/22 03:34:40;;;;;;;;;;;;;;;6.21;47.46;102682.44;5025985;28;19928;-87
2021/12/22 03:37:06;;;;;;;;;;;;;;;6.23;47.22;102678.84;5043722;28;19959;-84
2021/12/22 03:39:32;;;;;;;;;;;;;;;6.14;47.60;102682.44;5026057;28;19917;-86
2021/12/22 03:41:57;;;;;;;;;;;;;;;6.16;47.32;102678.84;5025497;28;19917;-85
2021/12/22 03:44:22;;;;;;;;;;;;;;;6.29;47.02;102681.53;5025008;28;19921;-84
2021/12/22 03:46:48;;;;;;;;;;;;;;;6.17;47.75;102672.56;5024757;28;19972;-80
2021/12/22 03:49:13;;;;;;;;;;;;;;;6.13;47.50;102675.25;5042255;28;19924;-82
2021/12/22 03:51:39;;;;;;;;;;;;;;;5.57;49.53;102675.16;5024830;28;19921;-84
2021/12/22 03:54:06;;;;;;;;;;;;;;;5.98;48.59;102663.63;5025533;28;19992;-82
2021/12/22 03:56:31;;;;;;;;;;;;;;;5.67;49.51;102665.31;5029615;28;19925;-83
2021/12/22 03:58:56;;;;;;;;;;;;;;;5.90;50.22;102668.03;5027726;28;19917;-86
2021/12/22 04:01:21;;;;;;;;;;;;;;;5.25;51.74;102662.50;5044635;28;19917;-86
2021/12/22 04:03:50;;;;;;;;;;;;;;;5.11;52.03;102666.94;5028309;28;19923;-87
2021/12/22 04:06:15;;;;;;;;;;;;;;;4.17;55.57;102664.56;5027019;28;19923;-85
2021/12/22 04:08:41;;;;;;;;;;;;;;;4.31;55.65;102658.41;5027173;28;20402;-85
2021/12/22 04:11:06;;;;;;;;;;;;;;;4.94;54.01;102659.69;5025632;28;19917;-84
2021/12/22 04:13:31;;;;;;;;;;;;;;;4.92;53.70;102664.16;5024379;28;19921;-85
2021/12/22 04:15:56;;;;;;;;;;;;;;;5.25;52.07;102664.31;5024549;28;19921;-84
2021/12/22 04:18:22;;;;;;;;;;;;;;;4.68;54.18;102662.25;5024796;28;19917;-86
2021/12/22 04:20:47;;;;;;;;;;;;;;;5.20;53.10;102658.91;5042636;28;19921;-89
2021/12/22 04:23:13;;;;;;;;;;;;;;;5.18;52.46;102649.97;5025506;28;19936;-86
2021/12/22 04:25:38;;;;;;;;;;;;;;;4.38;54.90;102653.09;5026437;28;19924;-89
2021/12/22 04:28:08;;;;;;;;;;;;;;;4.28;56.09;102645.88;5028371;28;19917;-83
2021/12/22 04:30:34;;;;;;;;;;;;;;;4.10;55.59;102643.94;5029566;28;20001;-84
2021/12/22 04:33:00;;;;;;;;;;;;;;;4.94;54.61;102640.03;5029373;28;19948;-84
2021/12/22 04:35:26;;;;;;;;;;;;;;;5.27;52.82;102639.28;5009593;28;19921;-85
2021/12/22 04:37:51;;;;;;;;;;;;;;;4.42;53.76;102637.94;5024265;28;19917;-86
2021/12/22 04:40:17;;;;;;;;;;;;;;;4.83;54.14;102639.06;5023496;28;19917;-85
2021/12/22 04:42:43;;;;;;;;;;;;;;;4.75;53.69;102644.41;5024713;28;19913;-84
2021/12/22 04:45:08;;;;;;;;;;;;;;;4.62;54.33;102635.41;5007960;28;19917;-86
2021/12/22 04:47:34;;;;;;;;;;;;;;;4.68;53.42;102638.13;5041572;28;19987;-82
2021/12/22 04:50:01;;;;;;;;;;;;;;;5.26;52.21;102626.75;5024577;28;19917;-85
2021/12/22 04:52:33;;;;;;;;;;;;;;;5.21;52.34;102624.94;5024080;28;19967;-86
2021/12/22 04:55:04;;;;;;;;;;;;;;;5.27;51.45;102627.66;5008706;28;20014;-86
2021/12/22 04:57:31;;;;;;;;;;;;;;;5.70;50.77;102625.06;5023121;28;20370;-86
2021/12/22 04:59:57;;;;;;;;;;;;;;;4.89;52.89;102617.66;5023286;28;19917;-85
2021/12/22 05:02:22;;;;;;;;;;;;;;;4.49;54.69;102623.69;5024415;28;19921;-86
2021/12/22 05:04:48;;;;;;;;;;;;;;;4.91;52.99;102627.50;5041361;28;19971;-86
2021/12/22 05:07:13;;;;;;;;;;;;;;;5.02;52.89;102623.97;5023610;28;20019;-84
2021/12/22 05:09:38;;;;;;;;;;;;;;;4.72;53.89;102614.91;5022734;28;19917;-86
2021/12/22 05:12:04;;;;;;;;;;;;;;;3.84;56.36;102619.63;5023852;28;19924;-84
2021/12/22 05:14:29;;;;;;;;;;;;;;;4.28;55.88;102607.50;5023275;28;19921;-87
2021/12/22 05:16:59;;;;;;;;;;;;;;;3.43;59.27;102610.31;5020234;28;19917;-85
2021/12/22 05:19:25;;;;;;;;;;;;;;;3.55;58.39;102604.22;5012857;28;19928;-86
2021/12/22 05:21:50;;;;;;;;;;;;;;;3.56;59.80;102608.66;5010106;28;19913;-86
2021/12/22 05:24:16;;;;;;;;;;;;;;;3.22;61.44;102612.78;5023153;28;19925;-82
2021/12/22 05:26:42;;;;;;;;;;;;;;;3.73;59.96;102611.50;5023012;28;19992;-83
2021/12/22 05:29:07;;;;;;;;;;;;;;;3.99;57.40;102616.19;5042483;28;19917;-83
2021/12/22 05:31:33;;;;;;;;;;;;;;;4.19;55.82;102611.00;5024028;28;19995;-84
2021/12/22 05:34:00;;;;;;;;;;;;;;;4.00;56.63;102621.56;5041949;28;19917;-86
2021/12/22 05:36:26;;;;;;;;;;;;;;;3.80;57.15;102613.34;5023582;28;19924;-85
2021/12/22 05:38:53;;;;;;;;;;;;;;;4.06;56.10;102613.56;5041201;28;19959;-86
2021/12/22 05:41:18;;;;;;;;;;;;;;;4.25;54.82;102616.38;5024602;28;19921;-87
2021/12/22 05:43:44;;;;;;;;;;;;;;;3.47;57.06;102613.91;5024494;28;19929;-84
2021/12/22 05:46:09;;;;;;;;;;;;;;;3.45;58.02;102621.94;5023227;28;19919;-84
2021/12/22 05:48:34;;;;;;;;;;;;;;;4.09;55.87;102615.38;5023481;28;19923;-87
2021/12/22 05:51:01;;;;;;;;;;;;;;;3.09;58.63;102620.63;5044525;28;19964;-86
2021/12/22 05:53:27;;;;;;;;;;;;;;;3.05;58.75;102624.16;5012128;28;19921;-85
2021/12/22 05:55:53;;;;;;;;;;;;;;;2.82;59.60;102624.78;5028313;28;19921;-83
2021/12/22 05:58:18;;;;;;;;;;;;;;;4.05;56.98;102616.25;5027940;28;19920;-84
2021/12/22 06:00:43;;;;;;;;;;;;;;;2.96;59.77;102618.69;5027642;28;19956;-85
2021/12/22 06:03:10;;;;;;;;;;;;;;;3.07;58.98;102613.50;5046186;28;20023;-80
2021/12/22 06:05:36;;;;;;;;;;;;;;;3.80;57.77;102616.00;5027974;28;19945;-85
2021/12/22 06:08:01;;;;;;;;;;;;;;;2.97;59.33;102626.72;5029983;28;19924;-81
2021/12/22 06:10:27;;;;;;;;;;;;;;;3.54;58.77;102619.34;5033608;28;19944;-80
2021/12/22 06:12:52;;;;;;;;;;;;;;;3.38;57.87;102625.41;5033613;28;19952;-82
2021/12/22 06:15:17;;;;;;;;;;;;;;;3.25;58.33;102613.69;5049863;28;19917;-82
2021/12/22 06:17:42;;;;;;;;;;;;;;;3.07;59.10;102622.41;5028320;28;19906;-83
2021/12/22 06:20:08;;;;;;;;;;;;;;;3.42;58.21;102612.97;5028212;28;19924;-83
2021/12/22 06:22:36;;;;;;;;;;;;;;;4.53;54.45;102614.78;5027433;28;19917;-89
2021/12/22 06:25:01;;;;;;;;;;;;;;;4.30;54.36;102603.03;5026629;28;19917;-83
2021/12/22 06:27:26;;;;;;;;;;;;;;;4.53;54.10;102606.75;5026556;28;19923;-82
2021/12/22 06:29:51;;;;;;;;;;;;;;;3.89;55.72;102605.41;5027141;28;19924;-84
2021/12/22 06:32:17;;;;;;;;;;;;;;;3.60;56.87;102602.47;5026361;28;20284;-84
2021/12/22 06:34:42;;;;;;;;;;;;;;;4.09;55.35;102599.28;5026567;28;19952;-83
2021/12/22 06:37:07;;;;;;;;;;;;;;;3.95;55.56;102600.97;5023254;28;19928;-83
2021/12/22 06:39:33;;;;;;;;;;;;;;;4.13;55.11;102600.22;5042831;28;20013;-86
2021/12/22 06:41:58;;;;;;;;;;;;;;;4.80;52.31;102599.72;5044025;28;19924;-84
2021/12/22 06:44:23;;;;;;;;;;;;;;;4.58;53.57;102602.31;5027107;28;19917;-83
2021/12/22 06:46:49;;;;;;;;;;;;;;;4.18;54.69;102609.19;5026311;28;19921;-83
2021/12/22 06:49:14;;;;;;;;;;;;;;;4.59;52.46;102606.78;5026301;28;19929;-84
2021/12/22 06:51:40;;;;;;;;;;;;;;;4.56;52.83;102617.50;5026697;28;19955;-83
2021/12/22 06:54:05;;;;;;;;;;;;;;;4.24;54.15;102618.19;5044339;28;20279;-86
2021/12/22 06:56:30;;;;;;;;;;;;;;;4.11;54.43;102615.38;5043673;28;19968;-83
2021/12/22 06:58:57;;;;;;;;;;;;;;;4.71;52.63;102615.78;5027346;28;19917;-83
2021/12/22 07:01:23;;;;;;;;;;;;;;;4.27;53.45;102609.25;5044213;28;19929;-85
2021/12/22 07:03:48;;;;;;;;;;;;;;;4.47;53.13;102605.81;5026143;28;20035;-85
2021/12/22 07:06:14;;;;;;;;;;;;;;;4.54;52.66;102615.69;5044668;28;19924;-82
2021/12/22 07:08:39;;;;;;;;;;;;;;;4.33;54.41;102598.56;5027166;28;19901;-83
2021/12/22 07:11:04;;;;;;;;;;;;;;;4.75;52.09;102602.38;5043704;28;19917;-85
2021/12/22 07:13:30;;;;;;;;;;;;;;;4.48;52.29;102610.28;5040930;28;19929;-86
2021/12/22 07:15:55;;;;;;;;;;;;;;;4.21;52.89;102601.16;5025521;28;19936;-83
2021/12/22 07:18:21;;;;;;;;;;;;;;;4.31;53.09;102597.69;5015596;28;19926;-84
2021/12/22 07:20:46;;;;;;;;;;;;;;;3.50;55.55;102593.47;5022525;28;19918;-85
2021/12/22 07:23:11;;;;;;;;;;;;;;;3.47;55.91;102589.84;5004415;28;19925;-85
2021/12/22 07:25:38;;;;;;;;;;;;;;;3.21;57.23;102594.91;5002292;28;19906;-86
2021/12/22 07:28:04;;;;;;;;;;;;;;;3.15;58.13;102588.59;5001930;28;20488;-84
2021/12/22 07:30:29;;;;;;;;;;;;;;;2.66;58.83;102598.72;4985199;28;20016;-82
2021/12/22 07:32:54;;;;;;;;;;;;;;;2.94;58.72;102591.91;5001495;28;19933;-85
2021/12/22 07:35:33;;;;;;;;;;;;;;;4.06;55.49;102581.44;5013656;28;19921;-83
2021/12/22 07:38:17;;;;;;;;;;;;;;;3.84;55.92;102583.03;5021283;28;19917;-85
2021/12/22 07:40:43;;;;;;;;;;;;;;;3.44;56.77;102582.69;5021153;28;19921;-84
2021/12/22 07:43:08;;;;;;;;;;;;;;;2.83;58.91;102591.78;5022058;28;19924;-86
2021/12/22 07:45:33;;;;;;;;;;;;;;;2.97;58.71;102583.06;5021515;28;19924;-88
2021/12/22 07:47:58;;;;;;;;;;;;;;;2.86;58.65;102592.72;5021329;28;19968;-86
2021/12/22 07:50:24;;;;;;;;;;;;;;;3.57;56.04;102589.03;5043182;28;20016;-85
2021/12/22 07:52:49;;;;;;;;;;;;;;;3.42;56.83;102588.91;5042214;28;19927;-85
2021/12/22 07:55:14;;;;;;;;;;;;;;;3.81;55.71;102593.72;5041352;28;19939;-82
2021/12/22 07:57:39;;;;;;;;;;;;;;;3.31;57.43;102595.03;5040892;28;19928;-83
2021/12/22 08:00:06;;;;;;;;;;;;;;;3.36;57.28;102595.97;5059033;28;19939;-87
2021/12/22 08:02:31;;;;;;;;;;;;;;;3.00;58.08;102599.13;5041232;28;20363;-86
2021/12/22 08:04:56;;;;;;;;;;;;;;;2.79;59.62;102603.34;5042281;28;19924;-86
2021/12/22 08:07:21;;;;;;;;;;;;;;;2.82;59.18;102622.09;5041780;28;19952;-86
2021/12/22 08:09:46;;;;;;;;;;;;;;;3.18;58.06;102612.72;5059854;28;19992;-85
2021/12/22 08:12:12;;;;;;;;;;;;;;;2.63;59.46;102618.25;5040977;28;19917;-84
2021/12/22 08:14:41;;;;;;;;;;;;;;;3.04;58.56;102600.09;5039590;28;19921;-85
2021/12/22 08:17:07;;;;;;;;;;;;;;;2.99;58.53;102613.41;5039868;28;19917;-85
2021/12/22 08:19:33;;;;;;;;;;;;;;;2.89;59.08;102617.72;5022790;28;19917;-86
2021/12/22 08:21:59;;;;;;;;;;;;;;;3.32;58.15;102606.63;5023360;28;20323;-86
2021/12/22 08:24:24;;;;;;;;;;;;;;;3.61;56.88;102595.31;5025295;28;19917;-84
2021/12/22 08:26:50;;;;;;;;;;;;;;;3.35;57.34;102603.97;5045529;28;19985;-84
2021/12/22 08:29:16;;;;;;;;;;;;;;;3.87;55.66;102595.56;5057564;28;19929;-84
2021/12/22 08:31:41;;;;;;;;;;;;;;;3.77;57.07;102597.25;5020740;28;19913;-82
2021/12/22 08:34:10;;;;;;;;;;;;;;;4.03;55.55;102593.91;5016709;28;20060;-84
2021/12/22 08:39:20;;;;;;;;;;;;;;;3.96;56.17;102597.44;5018706;28;20070;-85
2021/12/22 08:41:47;;;;;;;;;;;;;;;3.65;56.61;102599.81;5019062;28;20360;-84
2021/12/22 08:44:14;;;;;;;;;;;;;;;3.67;57.29;102590.03;5000427;28;20371;-84
2021/12/22 08:46:42;;;;;;;;;;;;;;;3.81;56.76;102592.84;5017258;28;19918;-86
2021/12/22 08:49:07;;;;;;;;;;;;;;;3.89;56.44;102581.31;5000893;28;19913;-85
2021/12/22 08:51:34;;;;;;;;;;;;;;;4.21;56.00;102586.00;5001913;28;19944;-87
2021/12/22 08:54:00;;;;;;;;;;;;;;;4.18;55.77;102577.97;5002710;28;20272;-86
2021/12/22 08:56:26;;;;;;;;;;;;;;;3.86;56.21;102591.09;5000737;28;19913;-83
2021/12/22 08:58:54;;;;;;;;;;;;;;;4.67;54.05;102585.38;5018757;28;19924;-85
2021/12/22 09:01:19;;;;;;;;;;;;;;;4.98;53.58;102580.13;5019362;28;19997;-84
2021/12/22 09:03:44;;;;;;;;;;;;;;;5.12;53.13;102580.22;5001063;28;20422;-83
2021/12/22 09:06:11;;;;;;;;;;;;;;;5.15;53.22;102578.41;5001087;28;19917;-84
2021/12/22 09:08:40;;;;;;;;;;;;;;;5.00;53.40;102581.06;5001509;28;19925;-86
2021/12/22 09:11:05;;;;;;;;;;;;;;;4.93;54.14;102590.84;5019822;28;19928;-84
2021/12/22 09:13:30;;;;;;;;;;;;;;;4.68;54.42;102591.63;5025582;28;19921;-81
2021/12/22 09:15:55;;;;;;;;;;;;;;;4.95;53.21;102589.09;5008529;28;19913;-81
2021/12/22 09:18:21;;;;;;;;;;;;;;;5.13;53.92;102596.31;5005986;28;19918;-81
2021/12/22 09:20:46;;;;;;;;;;;;;;;5.33;52.47;102593.66;5019096;28;19979;-83
2021/12/22 09:23:13;;;;;;;;;;;;;;;5.72;52.17;102585.66;5012489;28;19918;-84
2021/12/22 09:25:38;;;;;;;;;;;;;;;5.19;52.55;102594.53;5005207;28;20008;-85
2021/12/22 09:28:03;;;;;;;;;;;;;;;5.07;53.60;102587.31;5021610;28;19947;-85
2021/12/22 09:30:35;;;;;;;;;;;;;;;5.17;52.79;102589.16;5004981;28;20335;-85
2021/12/22 09:33:01;;;;;;;;;;;;;;;5.41;53.31;102572.22;5039971;28;19920;-83
2021/12/22 09:35:27;;;;;;;;;;;;;;;5.24;53.04;102572.19;5028757;28;20541;-83
2021/12/22 09:37:52;;;;;;;;;;;;;;;5.45;53.20;102573.09;5020101;28;19928;-86
2021/12/22 09:40:18;;;;;;;;;;;;;;;5.42;52.55;102575.78;5017982;28;19921;-83
2021/12/22 09:42:43;;;;;;;;;;;;;;;5.20;53.45;102580.22;5013604;28;19928;-83
2021/12/22 09:45:09;;;;;;;;;;;;;;;5.49;52.82;102577.59;5019982;28;19960;-85
2021/12/22 09:47:49;;;;;;;;;;;;;;;5.75;52.85;102580.31;5040782;28;19917;-85
2021/12/22 09:50:24;;;;;;;;;;;;;;;5.75;51.62;102579.41;5024606;28;20376;-84
2021/12/22 09:52:49;;;;;;;;;;;;;;;5.70;52.62;102578.50;5023895;28;19940;-85
2021/12/22 09:55:14;;;;;;;;;;;;;;;6.49;51.02;102577.56;5024938;28;19921;-87
2021/12/22 09:57:40;;;;;;;;;;;;;;;5.58;52.23;102582.09;5024934;28;19917;-87
2021/12/22 10:00:06;;;;;;;;;;;;;;;6.13;52.12;102570.47;5023496;28;20444;-85
2021/12/22 10:02:31;;;;;;;;;;;;;;;6.67;50.61;102563.19;5023071;28;19924;-90
2021/12/22 10:04:57;;;;;;;;;;;;;;;5.95;51.65;102576.69;5024229;28;19925;-89
2021/12/22 10:07:26;;;;;;;;;;;;;;;6.21;52.03;102568.66;5024614;28;20333;-86
2021/12/22 10:09:53;;;;;;;;;;;;;;;6.62;50.49;102573.03;5025049;28;19921;-87
2021/12/22 10:12:19;;;;;;;;;;;;;;;6.72;50.79;102571.22;5008939;28;19921;-85
2021/12/22 10:14:55;;;;;;;;;;;;;;;6.36;50.85;102568.63;5023215;28;19918;-86
2021/12/22 10:17:37;;;;;;;;;;;;;;;6.39;51.40;102563.25;5023729;28;20361;-83
2021/12/22 10:20:08;;;;;;;;;;;;;;;6.39;51.41;102571.31;5041142;28;19921;-85
2021/12/22 10:22:45;;;;;;;;;;;;;;;5.92;52.92;102576.72;5022576;28;19927;-85
2021/12/22 10:25:12;;;;;;;;;;;;;;;6.31;52.00;102569.53;5040276;28;19971;-87
2021/12/22 10:27:38;;;;;;;;;;;;;;;6.53;51.10;102565.00;5022103;28;20286;-87
2021/12/22 10:30:20;;;;;;;;;;;;;;;6.56;51.02;102565.88;5022031;28;19921;-87
2021/12/22 10:32:45;;;;;;;;;;;;;;;6.42;51.21;102567.72;5039909;28;19921;-88
2021/12/22 10:35:10;;;;;;;;;;;;;;;7.55;49.43;102559.06;5044075;28;19921;-84
2021/12/22 10:37:37;;;;;;;;;;;;;;;7.02;50.45;102562.13;5024435;28;19967;-87
2021/12/22 10:40:22;;;;;;;;;;;;;;;6.67;51.67;102563.19;5043101;28;20297;-85
2021/12/22 10:42:48;;;;;;;;;;;;;;;6.77;52.04;102560.44;5015494;28;19972;-83
2021/12/22 10:45:14;;;;;;;;;;;;;;;6.30;52.17;102560.59;5009607;28;19918;-85
2021/12/22 10:50:32;;;;;;;;;;;;;;;6.89;48.86;102545.13;5021493;28;19920;-86
2021/12/22 10:52:57;;;;;;;;;;;;;;;6.99;50.30;102548.69;5003275;28;19956;-85
2021/12/22 10:55:23;;;;;;;;;;;;;;;7.72;48.67;102546.38;5019991;28;19924;-85
2021/12/22 10:57:48;;;;;;;;;;;;;;;8.29;47.62;102535.06;5019139;28;20044;-87
2021/12/22 11:00:18;;;;;;;;;;;;;;;7.28;49.13;102539.53;5019882;28;19918;-85
2021/12/22 11:02:50;;;;;;;;;;;;;;;8.01;48.72;102537.16;5002058;28;19932;-86
2021/12/22 11:05:26;;;;;;;;;;;;;;;7.90;48.93;102537.25;5002313;28;19968;-85
2021/12/22 11:07:52;;;;;;;;;;;;;;;8.19;48.06;102532.50;5001889;28;19917;-86
2021/12/22 11:10:23;;;;;;;;;;;;;;;7.80;48.58;102527.47;5002033;28;19919;-86
2021/12/22 11:12:58;;;;;;;;;;;;;;;8.60;47.23;102512.25;5036700;28;19925;-86
2021/12/22 11:15:24;;;;;;;;;;;;;;;8.64;47.34;102509.50;5022538;28;19931;-85
2021/12/22 11:17:49;;;;;;;;;;;;;;;8.45;47.89;102513.34;5021568;28;19917;-85
2021/12/22 11:20:14;;;;;;;;;;;;;;;7.90;48.53;102510.31;5022013;28;19917;-86
2021/12/22 11:22:50;;;;;;;;;;;;;;;7.21;50.62;102513.56;5037961;28;19971;-83
2021/12/22 11:25:15;;;;;;;;;;;;;;;6.66;52.56;102504.03;5037120;28;19917;-85
2021/12/22 11:27:41;;;;;;;;;;;;;;;6.83;51.11;102499.44;5036764;28;20291;-86
2021/12/22 11:30:07;;;;;;;;;;;;;;;7.69;50.05;102500.63;5019977;28;20368;-86
2021/12/22 11:32:32;;;;;;;;;;;;;;;6.98;51.13;102495.75;5037733;28;19917;-86
2021/12/22 11:35:03;;;;;;;;;;;;;;;7.20;51.35;102492.91;5038595;28;19917;-84
2021/12/22 11:37:28;;;;;;;;;;;;;;;7.51;50.50;102490.00;5020488;28;19940;-85
2021/12/22 11:39:55;;;;;;;;;;;;;;;8.23;48.10;102483.00;5020254;28;19917;-86
2021/12/22 11:42:25;;;;;;;;;;;;;;;7.77;48.52;102485.25;5020381;28;19925;-83
2021/12/22 11:44:55;;;;;;;;;;;;;;;8.14;47.78;102479.50;5019077;28;19921;-81
2021/12/22 11:47:20;;;;;;;;;;;;;;;7.16;50.34;102483.09;5039800;28;20381;-86
2021/12/22 11:50:02;;;;;;;;;;;;;;;7.69;49.54;102478.19;5021096;28;19925;-84
2021/12/22 11:52:38;;;;;;;;;;;;;;;7.81;48.64;102469.97;5020830;28;19963;-86
2021/12/22 11:55:15;;;;;;;;;;;;;;;7.03;50.56;102472.41;5021089;28;19925;-85
2021/12/22 11:57:41;;;;;;;;;;;;;;;7.47;49.23;102472.09;5021169;28;19917;-87
2021/12/22 12:00:20;;;;;;;;;;;;;;;8.05;48.27;102474.22;5021126;28;19917;-87
2021/12/22 12:02:45;;;;;;;;;;;;;;;8.31;48.20;102464.94;5021302;28;19917;-84
2021/12/22 12:05:12;;;;;;;;;;;;;;;8.11;48.49;102467.88;5040761;28;19920;-84
2021/12/22 12:07:38;;;;;;;;;;;;;;;7.40;49.77;102468.56;5041433;28;19913;-84
2021/12/22 12:10:22;;;;;;;;;;;;;;;7.25;50.90;102465.06;5042063;28;19944;-83
2021/12/22 12:12:49;;;;;;;;;;;;;;;7.91;48.68;102466.28;5039320;28;19975;-84
2021/12/22 12:15:35;;;;;;;;;;;;;;;7.33;49.94;102462.31;5020501;28;19948;-84
2021/12/22 12:23:30;;;;;;;;;;;;;;;7.73;48.76;102443.13;5042956;28;20302;-86
2021/12/22 12:25:56;;;;;;;;;;;;;;;7.79;49.10;102447.56;5025091;28;19917;-83
2021/12/22 12:28:22;;;;;;;;;;;;;;;7.62;49.21;102447.69;5021623;28;19928;-86
2021/12/22 12:30:49;;;;;;;;;;;;;;;7.85;49.62;102446.56;5020454;28;20032;-83
2021/12/22 12:33:27;;;;;;;;;;;;;;;7.85;49.28;102441.19;5018949;28;19924;-84
2021/12/22 12:36:11;;;;;;;;;;;;;;;8.80;46.86;102436.44;5019564;28;19917;-82
2021/12/22 12:38:40;;;;;;;;;;;;;;;8.96;46.03;102429.91;5037092;28;20014;-87
2021/12/22 12:41:21;;;;;;;;;;;;;;;9.09;46.85;102430.63;5039080;28;19917;-85
2021/12/22 12:43:49;;;;;;;;;;;;;;;8.89;45.77;102430.03;5038846;28;19948;-85
2021/12/22 12:46:24;;;;;;;;;;;;;;;8.39;47.49;102411.78;5021100;28;19921;-83
2021/12/22 12:48:49;;;;;;;;;;;;;;;8.44;47.37;102412.66;5020624;28;19917;-84
2021/12/22 12:51:16;;;;;;;;;;;;;;;8.84;47.24;102409.38;5020658;28;19923;-87
2021/12/22 12:53:42;;;;;;;;;;;;;;;8.18;47.83;102410.25;5021511;28;19917;-85
2021/12/22 12:56:08;;;;;;;;;;;;;;;8.82;47.15;102399.53;5038735;28;19917;-85
2021/12/22 12:58:33;;;;;;;;;;;;;;;7.89;48.60;102389.94;5021002;28;19927;-84
2021/12/22 13:00:59;;;;;;;;;;;;;;;8.38;47.77;102390.22;5022494;28;20396;-85
2021/12/22 13:03:24;;;;;;;;;;;;;;;7.98;48.36;102389.81;5042325;28;19984;-86
2021/12/22 13:05:49;;;;;;;;;;;;;;;7.56;50.01;102384.03;5025947;28;19924;-88
2021/12/22 13:08:14;;;;;;;;;;;;;;;7.04;50.73;102377.31;5025379;28;19917;-85
2021/12/22 13:10:44;;;;;;;;;;;;;;;7.27;50.34;102373.53;5029178;28;19908;-86
2021/12/22 13:13:15;;;;;;;;;;;;;;;7.63;50.14;102369.56;5033513;28;19921;-89